createdAt,value
2016-09-29T00:00:14.604Z,0
2016-09-29T00:01:14.624Z,0
2016-09-29T00:02:14.632Z,0
2016-09-29T00:03:14.661Z,0
2016-09-29T00:04:14.670Z,0
2016-09-29T00:05:14.691Z,0
2016-09-29T00:06:14.722Z,0
2016-09-29T00:07:14.756Z,0
2016-09-29T00:08:14.753Z,0
2016-09-29T00:09:14.805Z,0
2016-09-29T00:10:14.797Z,0
2016-09-29T00:11:14.830Z,0
2016-09-29T00:12:14.839Z,0
2016-09-29T00:13:14.878Z,0
2016-09-29T00:14:14.887Z,0
2016-09-29T00:15:14.912Z,0
2016-09-29T00:16:14.960Z,0
2016-09-29T00:17:14.984Z,0
2016-09-29T00:18:14.982Z,0
2016-09-29T00:19:15.007Z,0
2016-09-29T00:20:15.034Z,0
2016-09-29T00:21:15.048Z,0
2016-09-29T00:22:15.077Z,0
2016-09-29T00:23:15.095Z,0
2016-09-29T00:24:15.119Z,0
2016-09-29T00:25:15.128Z,0
2016-09-29T00:26:15.133Z,0
2016-09-29T00:27:15.179Z,0
2016-09-29T00:28:15.197Z,0
2016-09-29T00:29:15.208Z,0
2016-09-29T00:30:15.232Z,0
2016-09-29T00:31:15.257Z,0
2016-09-29T00:32:15.285Z,0
2016-09-29T00:33:15.312Z,0
2016-09-29T00:34:15.321Z,0
2016-09-29T00:35:15.385Z,0
2016-09-29T00:36:15.362Z,0
2016-09-29T00:37:15.384Z,0
2016-09-29T00:38:15.404Z,0
2016-09-29T00:39:15.435Z,0
2016-09-29T00:40:15.449Z,0
2016-09-29T00:41:15.466Z,0
2016-09-29T00:42:15.482Z,0
2016-09-29T00:43:15.528Z,0
2016-09-29T00:44:15.535Z,0
2016-09-29T00:45:15.556Z,0
2016-09-29T00:46:15.587Z,0
2016-09-29T00:47:15.586Z,0
2016-09-29T00:48:15.624Z,0
2016-09-29T00:49:15.635Z,0
2016-09-29T00:50:15.653Z,0
2016-09-29T00:51:15.691Z,0
2016-09-29T00:52:15.710Z,0
2016-09-29T00:53:15.732Z,0
2016-09-29T00:54:15.763Z,0
2016-09-29T00:55:15.764Z,0
2016-09-29T00:56:15.799Z,0
2016-09-29T00:57:15.803Z,0
2016-09-29T00:58:15.834Z,0
2016-09-29T00:59:15.874Z,0
2016-09-29T01:00:15.866Z,0
2016-09-29T01:01:15.886Z,0
2016-09-29T01:02:15.915Z,0
2016-09-29T01:03:15.938Z,0
2016-09-29T01:04:15.963Z,0
2016-09-29T01:05:15.982Z,0
2016-09-29T01:06:16.124Z,0
2016-09-29T01:07:16.033Z,0
2016-09-29T01:08:16.031Z,0
2016-09-29T01:09:16.085Z,0
2016-09-29T01:10:16.099Z,0
2016-09-29T01:11:16.112Z,0
2016-09-29T01:12:16.129Z,0
2016-09-29T01:13:16.155Z,0
2016-09-29T01:14:16.193Z,0
2016-09-29T01:15:16.218Z,0
2016-09-29T01:16:16.223Z,0
2016-09-29T01:17:16.545Z,0
2016-09-29T01:18:16.257Z,0
2016-09-29T01:19:16.272Z,0
2016-09-29T01:20:16.292Z,0
2016-09-29T01:21:16.328Z,0
2016-09-29T01:22:16.359Z,0
2016-09-29T01:23:16.684Z,0
2016-09-29T01:24:16.371Z,0
2016-09-29T01:25:16.426Z,0
2016-09-29T01:26:16.439Z,0
2016-09-29T01:27:16.453Z,0
2016-09-29T01:28:16.462Z,0
2016-09-29T01:29:16.498Z,0
2016-09-29T01:30:16.508Z,0
2016-09-29T01:31:16.527Z,0
2016-09-29T01:32:16.544Z,0
2016-09-29T01:33:16.586Z,0
2016-09-29T01:34:16.599Z,0
2016-09-29T01:35:16.620Z,0
2016-09-29T01:36:16.635Z,0
2016-09-29T01:37:16.661Z,0
2016-09-29T01:38:16.673Z,0
2016-09-29T01:39:16.730Z,0
2016-09-29T01:40:16.732Z,0
2016-09-29T01:41:16.741Z,0
2016-09-29T01:42:16.767Z,0
2016-09-29T01:43:16.808Z,0
2016-09-29T01:44:16.804Z,0
2016-09-29T01:45:16.851Z,0
2016-09-29T01:46:16.844Z,0
2016-09-29T01:47:16.893Z,0
2016-09-29T01:48:16.889Z,0
2016-09-29T01:49:16.913Z,0
2016-09-29T01:50:16.926Z,0
2016-09-29T01:51:16.959Z,0
2016-09-29T01:52:16.988Z,0
2016-09-29T01:53:16.998Z,0
2016-09-29T01:54:17.049Z,0
2016-09-29T01:55:17.061Z,0
2016-09-29T01:56:17.072Z,0
2016-09-29T01:57:17.099Z,0
2016-09-29T01:58:17.120Z,0
2016-09-29T01:59:17.128Z,0
2016-09-29T02:00:17.166Z,0
2016-09-29T02:01:17.170Z,0
2016-09-29T02:02:17.194Z,0
2016-09-29T02:03:17.232Z,0
2016-09-29T02:04:17.228Z,0
2016-09-29T02:05:17.292Z,0
2016-09-29T02:06:17.275Z,0
2016-09-29T02:07:17.296Z,0
2016-09-29T02:08:17.348Z,0
2016-09-29T02:09:17.355Z,0
2016-09-29T02:10:17.353Z,0
2016-09-29T02:11:17.393Z,0
2016-09-29T02:12:17.422Z,0
2016-09-29T02:13:17.443Z,0
2016-09-29T02:14:17.448Z,0
2016-09-29T02:15:17.481Z,0
2016-09-29T02:16:17.494Z,0
2016-09-29T02:17:17.522Z,0
2016-09-29T02:18:17.544Z,0
2016-09-29T02:19:17.545Z,0
2016-09-29T02:20:17.581Z,0
2016-09-29T02:21:17.591Z,0
2016-09-29T02:22:17.609Z,0
2016-09-29T02:23:17.986Z,0
2016-09-29T02:24:17.666Z,0
2016-09-29T02:25:17.696Z,0
2016-09-29T02:26:17.710Z,0
2016-09-29T02:27:17.744Z,0
2016-09-29T02:28:17.744Z,0
2016-09-29T02:29:17.782Z,0
2016-09-29T02:30:17.800Z,0
2016-09-29T02:31:17.821Z,0
2016-09-29T02:32:17.831Z,0
2016-09-29T02:33:17.887Z,0
2016-09-29T02:34:17.876Z,0
2016-09-29T02:35:17.911Z,0
2016-09-29T02:36:17.912Z,0
2016-09-29T02:37:17.964Z,0
2016-09-29T02:38:17.972Z,0
2016-09-29T02:39:18.005Z,0
2016-09-29T02:40:18.020Z,0
2016-09-29T02:41:18.051Z,0
2016-09-29T02:42:18.062Z,0
2016-09-29T02:43:18.076Z,0
2016-09-29T02:44:18.098Z,0
2016-09-29T02:45:18.126Z,0
2016-09-29T02:46:18.138Z,0
2016-09-29T02:47:18.166Z,0
2016-09-29T02:48:18.184Z,0
2016-09-29T02:49:18.210Z,0
2016-09-29T02:50:18.220Z,0
2016-09-29T02:51:18.246Z,0
2016-09-29T02:52:18.269Z,0
2016-09-29T02:53:18.292Z,0
2016-09-29T02:54:18.334Z,0
2016-09-29T02:55:18.666Z,0
2016-09-29T02:56:18.352Z,0
2016-09-29T02:57:18.379Z,0
2016-09-29T02:58:18.415Z,0
2016-09-29T02:59:18.415Z,0
2016-09-29T03:00:18.442Z,0
2016-09-29T03:01:18.478Z,0
2016-09-29T03:02:18.481Z,0
2016-09-29T03:03:18.497Z,0
2016-09-29T03:04:18.535Z,0
2016-09-29T03:05:18.884Z,0
2016-09-29T03:06:18.572Z,0
2016-09-29T03:07:18.587Z,0
2016-09-29T03:08:18.595Z,0
2016-09-29T03:09:18.631Z,0
2016-09-29T03:10:18.634Z,0
2016-09-29T03:11:18.673Z,0
2016-09-29T03:12:18.707Z,0
2016-09-29T03:13:18.723Z,0
2016-09-29T03:14:18.744Z,0
2016-09-29T03:15:18.774Z,0
2016-09-29T03:16:18.782Z,0
2016-09-29T03:17:18.803Z,0
2016-09-29T03:18:18.814Z,0
2016-09-29T03:19:18.838Z,0
2016-09-29T03:20:18.883Z,0
2016-09-29T03:21:18.902Z,0
2016-09-29T03:22:18.910Z,0
2016-09-29T03:23:18.932Z,0
2016-09-29T03:24:18.961Z,0
2016-09-29T03:25:18.998Z,0
2016-09-29T03:26:18.994Z,0
2016-09-29T03:27:19.016Z,0
2016-09-29T03:28:19.024Z,0
2016-09-29T03:29:19.060Z,0
2016-09-29T03:30:19.070Z,0
2016-09-29T03:31:19.102Z,0
2016-09-29T03:32:19.115Z,0
2016-09-29T03:33:19.151Z,0
2016-09-29T03:34:19.182Z,0
2016-09-29T03:35:19.200Z,0
2016-09-29T03:36:19.219Z,0
2016-09-29T03:37:19.235Z,0
2016-09-29T03:38:19.267Z,0
2016-09-29T03:39:19.275Z,0
2016-09-29T03:40:19.308Z,0
2016-09-29T03:41:19.323Z,0
2016-09-29T03:42:19.333Z,0
2016-09-29T03:43:19.364Z,0
2016-09-29T03:44:19.382Z,0
2016-09-29T03:45:19.408Z,0
2016-09-29T03:46:19.432Z,0
2016-09-29T03:47:19.457Z,0
2016-09-29T03:48:19.477Z,0
2016-09-29T03:49:19.503Z,0
2016-09-29T03:50:19.513Z,0
2016-09-29T03:51:19.538Z,0
2016-09-29T03:52:19.577Z,0
2016-09-29T03:53:19.575Z,0
2016-09-29T03:54:19.606Z,0
2016-09-29T03:55:19.627Z,0
2016-09-29T03:56:19.637Z,0
2016-09-29T03:57:19.673Z,0
2016-09-29T03:58:19.672Z,0
2016-09-29T03:59:20.033Z,0
2016-09-29T04:01:19.774Z,0
2016-09-29T04:02:19.796Z,0
2016-09-29T04:03:19.830Z,0
2016-09-29T04:04:19.841Z,0
2016-09-29T04:05:19.849Z,0
2016-09-29T04:06:19.860Z,0
2016-09-29T04:07:19.920Z,0
2016-09-29T04:08:19.912Z,0
2016-09-29T04:09:19.942Z,0
2016-09-29T04:10:19.954Z,0
2016-09-29T04:11:19.975Z,0
2016-09-29T04:12:19.988Z,0
2016-09-29T04:13:20.025Z,0
2016-09-29T04:14:20.039Z,0
2016-09-29T04:15:20.064Z,0
2016-09-29T04:16:20.071Z,0
2016-09-29T04:17:20.097Z,0
2016-09-29T04:18:20.126Z,0
2016-09-29T04:19:20.158Z,0
2016-09-29T04:20:20.179Z,0
2016-09-29T04:21:20.183Z,0
2016-09-29T04:22:20.191Z,0
2016-09-29T04:23:20.250Z,0
2016-09-29T04:24:20.272Z,0
2016-09-29T04:25:20.288Z,0
2016-09-29T04:26:20.285Z,0
2016-09-29T04:27:20.306Z,0
2016-09-29T04:28:20.330Z,0
2016-09-29T04:29:20.693Z,0
2016-09-29T04:30:20.380Z,0
2016-09-29T04:31:20.392Z,0
2016-09-29T04:32:20.420Z,0
2016-09-29T04:33:20.455Z,0
2016-09-29T04:34:20.468Z,0
2016-09-29T04:35:20.479Z,0
2016-09-29T04:36:20.501Z,0
2016-09-29T04:37:20.533Z,0
2016-09-29T04:38:20.553Z,0
2016-09-29T04:39:20.565Z,0
2016-09-29T04:40:20.597Z,0
2016-09-29T04:41:20.602Z,0
2016-09-29T04:42:20.640Z,0
2016-09-29T04:43:20.659Z,0
2016-09-29T04:44:20.667Z,0
2016-09-29T04:45:20.713Z,0
2016-09-29T04:46:20.725Z,0
2016-09-29T04:47:20.737Z,0
2016-09-29T04:48:20.756Z,0
2016-09-29T04:49:20.794Z,0
2016-09-29T04:50:20.792Z,0
2016-09-29T04:51:20.842Z,0
2016-09-29T04:52:20.833Z,0
2016-09-29T04:53:20.867Z,0
2016-09-29T04:54:20.879Z,0
2016-09-29T04:55:20.945Z,0
2016-09-29T04:56:20.915Z,0
2016-09-29T04:57:20.929Z,0
2016-09-29T04:58:20.958Z,0
2016-09-29T04:59:20.999Z,0
2016-09-29T05:00:21.008Z,0
2016-09-29T05:01:21.022Z,0
2016-09-29T05:02:21.066Z,0
2016-09-29T05:03:21.079Z,0
2016-09-29T05:04:21.095Z,0
2016-09-29T05:05:21.097Z,0
2016-09-29T05:06:21.133Z,0
2016-09-29T05:07:21.157Z,0
2016-09-29T05:08:21.168Z,0
2016-09-29T05:09:21.212Z,0
2016-09-29T05:10:21.229Z,0
2016-09-29T05:11:21.250Z,0
2016-09-29T05:12:21.256Z,0
2016-09-29T05:13:21.283Z,0
2016-09-29T05:14:21.300Z,0
2016-09-29T05:15:21.326Z,0
2016-09-29T05:16:21.331Z,0
2016-09-29T05:17:21.383Z,0
2016-09-29T05:18:21.405Z,0
2016-09-29T05:19:21.402Z,0
2016-09-29T05:20:21.450Z,0
2016-09-29T05:21:21.448Z,0
2016-09-29T05:22:21.458Z,0
2016-09-29T05:23:21.484Z,0
2016-09-29T05:24:21.510Z,0
2016-09-29T05:25:21.529Z,0
2016-09-29T05:26:21.558Z,0
2016-09-29T05:27:21.559Z,0
2016-09-29T05:28:21.607Z,5
2016-09-29T05:29:21.636Z,5
2016-09-29T05:30:21.641Z,5
2016-09-29T05:31:21.677Z,5
2016-09-29T05:32:21.673Z,5
2016-09-29T05:33:21.712Z,5
2016-09-29T05:34:21.736Z,5
2016-09-29T05:35:21.761Z,5
2016-09-29T05:36:21.748Z,5
2016-09-29T05:37:21.783Z,10
2016-09-29T05:38:21.788Z,10
2016-09-29T05:39:21.819Z,10
2016-09-29T05:40:21.840Z,10
2016-09-29T05:41:21.866Z,10
2016-09-29T05:42:21.877Z,10
2016-09-29T05:43:21.909Z,10
2016-09-29T05:44:21.936Z,15
2016-09-29T05:45:21.926Z,15
2016-09-29T05:46:21.969Z,15
2016-09-29T05:47:21.984Z,15
2016-09-29T05:48:22.014Z,15
2016-09-29T05:49:22.040Z,15
2016-09-29T05:50:22.054Z,20
2016-09-29T05:51:22.062Z,20
2016-09-29T05:52:22.095Z,20
2016-09-29T05:53:22.112Z,20
2016-09-29T05:54:22.132Z,20
2016-09-29T05:55:22.167Z,25
2016-09-29T05:56:22.167Z,25
2016-09-29T05:57:22.206Z,25
2016-09-29T05:58:22.222Z,25
2016-09-29T05:59:22.245Z,25
2016-09-29T06:00:22.269Z,25
2016-09-29T06:01:22.302Z,25
2016-09-29T06:02:22.308Z,30
2016-09-29T06:03:22.321Z,30
2016-09-29T06:04:22.324Z,30
2016-09-29T06:05:22.366Z,30
2016-09-29T06:06:22.372Z,30
2016-09-29T06:07:22.400Z,30
2016-09-29T06:08:22.448Z,30
2016-09-29T06:09:22.442Z,35
2016-09-29T06:10:22.453Z,35
2016-09-29T06:11:22.805Z,35
2016-09-29T06:12:22.480Z,35
2016-09-29T06:13:22.537Z,35
2016-09-29T06:14:22.554Z,40
2016-09-29T06:15:22.574Z,40
2016-09-29T06:16:22.580Z,40
2016-09-29T06:17:22.622Z,45
2016-09-29T06:18:22.641Z,45
2016-09-29T06:19:22.671Z,45
2016-09-29T06:20:22.687Z,45
2016-09-29T06:21:22.688Z,50
2016-09-29T06:22:22.720Z,50
2016-09-29T06:23:22.736Z,50
2016-09-29T06:24:22.753Z,55
2016-09-29T06:25:22.783Z,55
2016-09-29T06:26:22.794Z,55
2016-09-29T06:27:22.815Z,60
2016-09-29T06:28:22.853Z,60
2016-09-29T06:29:22.877Z,60
2016-09-29T06:30:22.880Z,65
2016-09-29T06:31:22.913Z,65
2016-09-29T06:32:22.941Z,70
2016-09-29T06:33:22.947Z,70
2016-09-29T06:34:22.960Z,70
2016-09-29T06:35:22.978Z,75
2016-09-29T06:36:23.017Z,75
2016-09-29T06:37:23.056Z,80
2016-09-29T06:38:23.069Z,85
2016-09-29T06:39:23.087Z,85
2016-09-29T06:40:23.112Z,90
2016-09-29T06:41:23.117Z,90
2016-09-29T06:42:23.121Z,90
2016-09-29T06:43:23.170Z,95
2016-09-29T06:44:23.174Z,100
2016-09-29T06:45:23.196Z,100
2016-09-29T06:46:23.222Z,100
2016-09-29T06:47:23.242Z,105
2016-09-29T06:48:23.277Z,100
2016-09-29T06:49:23.292Z,100
2016-09-29T06:50:23.322Z,105
2016-09-29T06:51:23.333Z,95
2016-09-29T06:52:23.358Z,110
2016-09-29T06:53:23.372Z,115
2016-09-29T06:54:23.385Z,115
2016-09-29T06:55:23.408Z,115
2016-09-29T06:56:23.435Z,110
2016-09-29T06:57:23.462Z,110
2016-09-29T06:58:23.473Z,115
2016-09-29T06:59:23.498Z,115
2016-09-29T07:00:23.526Z,120
2016-09-29T07:01:23.534Z,110
2016-09-29T07:02:23.574Z,115
2016-09-29T07:03:23.585Z,115
2016-09-29T07:04:23.612Z,125
2016-09-29T07:05:23.641Z,130
2016-09-29T07:06:23.635Z,135
2016-09-29T07:07:23.694Z,135
2016-09-29T07:08:23.696Z,125
2016-09-29T07:09:23.703Z,125
2016-09-29T07:10:23.730Z,125
2016-09-29T07:11:23.755Z,125
2016-09-29T07:12:23.780Z,130
2016-09-29T07:13:23.817Z,130
2016-09-29T07:14:23.826Z,125
2016-09-29T07:15:23.851Z,120
2016-09-29T07:16:23.861Z,125
2016-09-29T07:17:23.876Z,130
2016-09-29T07:18:23.920Z,120
2016-09-29T07:19:23.962Z,120
2016-09-29T07:20:23.967Z,115
2016-09-29T07:21:23.994Z,125
2016-09-29T07:22:24.009Z,120
2016-09-29T07:23:24.031Z,125
2016-09-29T07:24:24.050Z,135
2016-09-29T07:25:24.063Z,120
2016-09-29T07:26:24.090Z,120
2016-09-29T07:27:24.109Z,110
2016-09-29T07:28:24.154Z,110
2016-09-29T07:29:24.149Z,110
2016-09-29T07:30:24.196Z,110
2016-09-29T07:31:24.184Z,115
2016-09-29T07:32:24.240Z,110
2016-09-29T07:33:24.234Z,110
2016-09-29T07:34:24.268Z,110
2016-09-29T07:35:24.282Z,110
2016-09-29T07:36:24.312Z,115
2016-09-29T07:37:24.330Z,125
2016-09-29T07:38:24.341Z,130
2016-09-29T07:39:24.386Z,135
2016-09-29T07:40:24.400Z,130
2016-09-29T07:41:24.414Z,125
2016-09-29T07:42:24.438Z,125
2016-09-29T07:43:24.485Z,125
2016-09-29T07:44:24.482Z,125
2016-09-29T07:45:24.521Z,125
2016-09-29T07:46:24.527Z,130
2016-09-29T07:47:24.562Z,135
2016-09-29T07:48:24.580Z,135
2016-09-29T07:49:24.591Z,135
2016-09-29T07:50:24.636Z,140
2016-09-29T07:51:24.641Z,140
2016-09-29T07:52:24.648Z,140
2016-09-29T07:53:24.676Z,140
2016-09-29T07:54:24.714Z,145
2016-09-29T07:55:24.739Z,140
2016-09-29T07:56:24.757Z,135
2016-09-29T07:57:24.770Z,130
2016-09-29T07:58:24.801Z,130
2016-09-29T07:59:24.808Z,130
2016-09-29T08:00:24.849Z,130
2016-09-29T08:01:24.861Z,140
2016-09-29T08:02:24.887Z,130
2016-09-29T08:03:24.908Z,130
2016-09-29T08:04:24.911Z,130
2016-09-29T08:05:24.949Z,135
2016-09-29T08:06:24.954Z,135
2016-09-29T08:07:24.999Z,140
2016-09-29T08:08:24.995Z,155
2016-09-29T08:09:25.038Z,145
2016-09-29T08:10:25.054Z,150
2016-09-29T08:11:25.080Z,165
2016-09-29T08:12:25.104Z,160
2016-09-29T08:13:25.139Z,165
2016-09-29T08:14:25.142Z,170
2016-09-29T08:15:25.182Z,170
2016-09-29T08:16:25.174Z,180
2016-09-29T08:17:25.206Z,170
2016-09-29T08:18:25.230Z,170
2016-09-29T08:19:25.262Z,175
2016-09-29T08:20:25.340Z,175
2016-09-29T08:21:25.299Z,170
2016-09-29T08:22:25.314Z,175
2016-09-29T08:23:25.366Z,170
2016-09-29T08:24:25.378Z,165
2016-09-29T08:25:25.393Z,155
2016-09-29T08:26:25.417Z,170
2016-09-29T08:27:25.435Z,165
2016-09-29T08:28:25.440Z,165
2016-09-29T08:29:25.480Z,160
2016-09-29T08:30:25.507Z,155
2016-09-29T08:31:25.540Z,160
2016-09-29T08:32:25.537Z,160
2016-09-29T08:33:25.561Z,170
2016-09-29T08:34:25.581Z,170
2016-09-29T08:35:25.604Z,175
2016-09-29T08:36:25.640Z,175
2016-09-29T08:37:25.636Z,185
2016-09-29T08:38:25.685Z,180
2016-09-29T08:39:25.720Z,180
2016-09-29T08:40:25.741Z,175
2016-09-29T08:41:25.727Z,165
2016-09-29T08:42:25.774Z,170
2016-09-29T08:43:25.805Z,165
2016-09-29T08:44:25.825Z,160
2016-09-29T08:45:25.846Z,150
2016-09-29T08:46:25.846Z,150
2016-09-29T08:47:25.867Z,145
2016-09-29T08:48:25.913Z,150
2016-09-29T08:49:25.935Z,150
2016-09-29T08:50:25.960Z,155
2016-09-29T08:51:26.286Z,155
2016-09-29T08:52:26.004Z,155
2016-09-29T08:53:26.029Z,165
2016-09-29T08:54:26.035Z,160
2016-09-29T08:55:26.051Z,165
2016-09-29T08:56:26.097Z,170
2016-09-29T08:57:26.424Z,175
2016-09-29T08:58:26.128Z,180
2016-09-29T08:59:26.158Z,185
2016-09-29T09:00:26.171Z,175
2016-09-29T09:01:26.192Z,185
2016-09-29T09:02:26.241Z,205
2016-09-29T09:03:26.249Z,210
2016-09-29T09:04:26.270Z,235
2016-09-29T09:05:26.304Z,225
2016-09-29T09:06:26.328Z,230
2016-09-29T09:07:26.346Z,185
2016-09-29T09:08:26.693Z,165
2016-09-29T09:09:26.387Z,165
2016-09-29T09:10:26.408Z,165
2016-09-29T09:11:26.413Z,165
2016-09-29T09:12:26.461Z,170
2016-09-29T09:13:26.478Z,180
2016-09-29T09:14:26.483Z,175
2016-09-29T09:15:26.516Z,180
2016-09-29T09:16:26.535Z,180
2016-09-29T09:17:26.541Z,250
2016-09-29T09:18:26.575Z,205
2016-09-29T09:19:26.592Z,185
2016-09-29T09:20:26.628Z,240
2016-09-29T09:21:26.632Z,235
2016-09-29T09:22:26.669Z,225
2016-09-29T09:23:26.681Z,235
2016-09-29T09:24:26.707Z,225
2016-09-29T09:25:26.755Z,220
2016-09-29T09:26:26.766Z,215
2016-09-29T09:27:26.773Z,230
2016-09-29T09:28:26.798Z,235
2016-09-29T09:29:26.821Z,240
2016-09-29T09:30:26.873Z,230
2016-09-29T09:31:26.880Z,215
2016-09-29T09:32:26.905Z,220
2016-09-29T09:33:26.941Z,210
2016-09-29T09:34:26.961Z,210
2016-09-29T09:35:26.979Z,200
2016-09-29T09:36:26.988Z,175
2016-09-29T09:37:27.007Z,170
2016-09-29T09:38:27.027Z,195
2016-09-29T09:39:27.083Z,205
2016-09-29T09:40:27.086Z,215
2016-09-29T09:41:27.121Z,225
2016-09-29T09:42:27.130Z,230
2016-09-29T09:43:27.167Z,215
2016-09-29T09:44:27.162Z,200
2016-09-29T09:45:27.201Z,210
2016-09-29T09:46:27.229Z,210
2016-09-29T09:47:27.259Z,215
2016-09-29T09:48:27.262Z,205
2016-09-29T09:49:27.296Z,200
2016-09-29T09:50:27.328Z,185
2016-09-29T09:51:27.352Z,200
2016-09-29T09:52:27.352Z,195
2016-09-29T09:53:27.400Z,190
2016-09-29T09:54:27.426Z,200
2016-09-29T09:55:27.446Z,215
2016-09-29T09:56:27.502Z,220
2016-09-29T09:57:27.487Z,225
2016-09-29T09:58:27.474Z,230
2016-09-29T09:59:27.513Z,225
2016-09-29T10:00:27.533Z,225
2016-09-29T10:01:27.601Z,230
2016-09-29T10:02:27.571Z,220
2016-09-29T10:03:27.599Z,225
2016-09-29T10:04:27.622Z,220
2016-09-29T10:05:27.656Z,225
2016-09-29T10:06:27.678Z,235
2016-09-29T10:07:27.704Z,240
2016-09-29T10:08:27.730Z,240
2016-09-29T10:09:27.731Z,240
2016-09-29T10:10:27.766Z,235
2016-09-29T10:11:27.779Z,210
2016-09-29T10:12:27.808Z,220
2016-09-29T10:13:27.841Z,200
2016-09-29T10:14:27.835Z,215
2016-09-29T10:15:27.877Z,220
2016-09-29T10:16:27.898Z,240
2016-09-29T10:17:27.929Z,225
2016-09-29T10:18:27.943Z,200
2016-09-29T10:19:27.974Z,195
2016-09-29T10:20:28.004Z,210
2016-09-29T10:21:28.072Z,210
2016-09-29T10:22:28.033Z,210
2016-09-29T10:23:28.076Z,210
2016-09-29T10:24:28.081Z,215
2016-09-29T10:25:28.102Z,200
2016-09-29T10:26:28.135Z,200
2016-09-29T10:27:28.155Z,210
2016-09-29T10:28:28.178Z,230
2016-09-29T10:29:28.205Z,230
2016-09-29T10:30:28.222Z,235
2016-09-29T10:31:28.281Z,215
2016-09-29T10:32:28.280Z,215
2016-09-29T10:33:28.309Z,230
2016-09-29T10:34:28.320Z,210
2016-09-29T10:35:28.337Z,240
2016-09-29T10:36:28.354Z,230
2016-09-29T10:37:28.402Z,235
2016-09-29T10:38:28.425Z,210
2016-09-29T10:39:28.427Z,225
2016-09-29T10:40:28.467Z,230
2016-09-29T10:41:28.496Z,220
2016-09-29T10:42:28.519Z,220
2016-09-29T10:43:28.549Z,210
2016-09-29T10:44:28.554Z,205
2016-09-29T10:45:28.613Z,220
2016-09-29T10:46:28.606Z,215
2016-09-29T10:47:28.654Z,185
2016-09-29T10:48:28.649Z,185
2016-09-29T10:49:28.688Z,185
2016-09-29T10:50:28.686Z,185
2016-09-29T10:51:28.744Z,185
2016-09-29T10:52:28.753Z,190
2016-09-29T10:53:28.769Z,205
2016-09-29T10:54:28.794Z,185
2016-09-29T10:55:28.827Z,190
2016-09-29T10:56:28.843Z,210
2016-09-29T10:57:28.876Z,210
2016-09-29T10:58:28.896Z,210
2016-09-29T10:59:28.925Z,215
2016-09-29T11:00:28.950Z,210
2016-09-29T11:01:28.956Z,215
2016-09-29T11:02:28.997Z,215
2016-09-29T11:03:29.025Z,215
2016-09-29T11:04:29.024Z,215
2016-09-29T11:05:29.056Z,215
2016-09-29T11:06:29.097Z,215
2016-09-29T11:07:29.109Z,215
2016-09-29T11:08:29.120Z,215
2016-09-29T11:09:29.169Z,220
2016-09-29T11:10:29.177Z,220
2016-09-29T11:11:29.192Z,220
2016-09-29T11:12:29.218Z,220
2016-09-29T11:13:29.260Z,220
2016-09-29T11:14:29.283Z,220
2016-09-29T11:15:29.289Z,220
2016-09-29T11:16:29.328Z,220
2016-09-29T11:17:29.358Z,225
2016-09-29T11:18:29.390Z,220
2016-09-29T11:19:29.397Z,220
2016-09-29T11:20:29.422Z,215
2016-09-29T11:21:29.462Z,205
2016-09-29T11:22:29.461Z,205
2016-09-29T11:23:29.485Z,210
2016-09-29T11:24:29.507Z,230
2016-09-29T11:25:29.547Z,230
2016-09-29T11:26:29.566Z,215
2016-09-29T11:27:29.584Z,225
2016-09-29T11:28:29.611Z,170
2016-09-29T11:29:29.643Z,240
2016-09-29T11:30:29.667Z,245
2016-09-29T11:31:29.687Z,245
2016-09-29T11:32:29.705Z,245
2016-09-29T11:33:29.751Z,245
2016-09-29T11:34:29.757Z,250
2016-09-29T11:35:30.109Z,255
2016-09-29T11:36:29.805Z,245
2016-09-29T11:37:29.840Z,245
2016-09-29T11:38:29.852Z,245
2016-09-29T11:39:29.892Z,245
2016-09-29T11:40:29.898Z,250
2016-09-29T11:41:29.930Z,250
2016-09-29T11:42:29.967Z,255
2016-09-29T11:43:29.954Z,255
2016-09-29T11:44:29.990Z,260
2016-09-29T11:45:30.019Z,265
2016-09-29T11:46:30.033Z,245
2016-09-29T11:47:30.072Z,250
2016-09-29T11:48:30.117Z,220
2016-09-29T11:49:30.117Z,270
2016-09-29T11:50:30.150Z,265
2016-09-29T11:51:30.181Z,270
2016-09-29T11:52:30.188Z,270
2016-09-29T11:53:30.213Z,250
2016-09-29T11:54:30.228Z,260
2016-09-29T11:55:30.325Z,260
2016-09-29T11:56:30.297Z,270
2016-09-29T11:57:30.314Z,280
2016-09-29T11:58:30.327Z,285
2016-09-29T11:59:30.355Z,290
2016-09-29T12:00:30.371Z,295
2016-09-29T12:01:30.405Z,295
2016-09-29T12:02:30.423Z,295
2016-09-29T12:03:30.481Z,265
2016-09-29T12:04:30.495Z,280
2016-09-29T12:05:30.516Z,265
2016-09-29T12:06:30.546Z,215
2016-09-29T12:07:30.548Z,195
2016-09-29T12:08:30.587Z,175
2016-09-29T12:09:30.599Z,165
2016-09-29T12:10:30.627Z,185
2016-09-29T12:11:30.668Z,230
2016-09-29T12:12:30.695Z,260
2016-09-29T12:13:30.727Z,265
2016-09-29T12:14:30.738Z,290
2016-09-29T12:15:30.773Z,300
2016-09-29T12:16:30.788Z,300
2016-09-29T12:17:30.801Z,290
2016-09-29T12:18:30.804Z,285
2016-09-29T12:19:30.857Z,285
2016-09-29T12:20:30.940Z,285
2016-09-29T12:21:30.917Z,280
2016-09-29T12:22:30.937Z,280
2016-09-29T12:23:30.964Z,275
2016-09-29T12:24:30.989Z,275
2016-09-29T12:25:31.320Z,270
2016-09-29T12:26:31.020Z,270
2016-09-29T12:27:31.399Z,270
2016-09-29T12:28:31.083Z,270
2016-09-29T12:29:31.115Z,270
2016-09-29T12:30:31.109Z,275
2016-09-29T12:31:31.170Z,270
2016-09-29T12:32:31.181Z,270
2016-09-29T12:33:31.221Z,260
2016-09-29T12:34:31.241Z,265
2016-09-29T12:35:31.250Z,275
2016-09-29T12:36:31.272Z,275
2016-09-29T12:37:31.289Z,280
2016-09-29T12:38:31.330Z,280
2016-09-29T12:39:31.362Z,280
2016-09-29T12:40:31.376Z,270
2016-09-29T12:41:31.422Z,265
2016-09-29T12:42:31.423Z,270
2016-09-29T12:43:31.457Z,265
2016-09-29T12:44:31.501Z,265
2016-09-29T12:45:31.519Z,265
2016-09-29T12:46:31.538Z,255
2016-09-29T12:47:31.564Z,255
2016-09-29T12:48:31.582Z,205
2016-09-29T12:49:31.606Z,245
2016-09-29T12:50:31.635Z,235
2016-09-29T12:51:31.661Z,235
2016-09-29T12:52:31.725Z,225
2016-09-29T12:53:31.731Z,220
2016-09-29T12:54:31.742Z,235
2016-09-29T12:55:31.807Z,230
2016-09-29T12:56:31.808Z,245
2016-09-29T12:57:31.864Z,255
2016-09-29T12:58:31.880Z,255
2016-09-29T12:59:31.915Z,245
2016-09-29T13:00:31.920Z,240
2016-09-29T13:01:31.928Z,220
2016-09-29T13:02:31.933Z,235
2016-09-29T13:03:31.963Z,190
2016-09-29T13:04:32.033Z,185
2016-09-29T13:05:32.048Z,255
2016-09-29T13:06:32.087Z,255
2016-09-29T13:07:32.129Z,210
2016-09-29T13:08:32.134Z,215
2016-09-29T13:09:32.146Z,200
2016-09-29T13:10:32.133Z,170
2016-09-29T13:11:32.160Z,150
2016-09-29T13:12:32.194Z,155
2016-09-29T13:13:32.229Z,190
2016-09-29T13:14:32.269Z,160
2016-09-29T13:15:32.306Z,200
2016-09-29T13:16:32.338Z,225
2016-09-29T13:17:32.359Z,230
2016-09-29T13:18:32.339Z,240
2016-09-29T13:19:32.335Z,235
2016-09-29T13:20:32.363Z,230
2016-09-29T13:21:32.423Z,240
2016-09-29T13:22:32.450Z,240
2016-09-29T13:23:32.490Z,210
2016-09-29T13:24:32.506Z,165
2016-09-29T13:25:32.515Z,165
2016-09-29T13:26:32.524Z,210
2016-09-29T13:27:32.554Z,190
2016-09-29T13:28:32.582Z,200
2016-09-29T13:29:32.617Z,165
2016-09-29T13:30:32.640Z,150
2016-09-29T13:31:32.659Z,155
2016-09-29T13:32:32.686Z,170
2016-09-29T13:33:32.696Z,225
2016-09-29T13:34:32.747Z,200
2016-09-29T13:35:32.746Z,175
2016-09-29T13:36:32.782Z,165
2016-09-29T13:37:32.805Z,165
2016-09-29T13:38:32.827Z,160
2016-09-29T13:39:32.862Z,150
2016-09-29T13:40:32.888Z,155
2016-09-29T13:41:32.929Z,165
2016-09-29T13:42:32.928Z,145
2016-09-29T13:43:32.976Z,140
2016-09-29T13:44:32.989Z,180
2016-09-29T13:45:33.298Z,150
2016-09-29T13:46:33.004Z,155
2016-09-29T13:47:33.050Z,175
2016-09-29T13:48:33.064Z,150
2016-09-29T13:49:33.109Z,145
2016-09-29T13:50:33.121Z,145
2016-09-29T13:51:33.158Z,175
2016-09-29T13:52:33.162Z,200
2016-09-29T13:53:33.216Z,215
2016-09-29T13:54:33.233Z,205
2016-09-29T13:55:33.252Z,150
2016-09-29T13:56:33.264Z,145
2016-09-29T13:57:33.292Z,145
2016-09-29T13:58:33.300Z,145
2016-09-29T13:59:33.324Z,145
2016-09-29T14:00:33.357Z,135
2016-09-29T14:01:33.393Z,130
2016-09-29T14:02:33.413Z,130
2016-09-29T14:03:33.455Z,125
2016-09-29T14:04:33.462Z,125
2016-09-29T14:05:33.485Z,130
2016-09-29T14:06:33.525Z,130
2016-09-29T14:07:33.769Z,140
2016-09-29T14:08:33.549Z,150
2016-09-29T14:09:33.594Z,170
2016-09-29T14:10:34.798Z,200
2016-09-29T14:11:33.871Z,195
2016-09-29T14:12:33.663Z,160